Terminal Aerodrome Forecast
Issued by NWS

Home | Current Version | Previous Version | Text Only | Print | Product List | Glossary On
Versions: 1 2 3 4 5 6 7 8 9 10 11 12 13 14 15 16
000
FTUS44 KCRP 292333
TAFALI
TAF
KALI 292333Z 3000/3024 12012G16KT P6SM SCT040 BKN250
     FM300200 14011KT P6SM SCT015 BKN250
     FM300600 13006KT P6SM BKN015 OVC250
      TEMPO 3009/3013 5SM BR FEW006 BKN015
     FM301500 14012G17KT P6SM SCT025 BKN040
     FM302100 13016G23KT P6SM SCT050 BKN250=

USA.gov is the U.S. government's official web portal to all federal, state and local government web resources and services.